Time;durP1;ratioP1;P1;durP2;ratioP2;P2;SDS_P1;SDS_P2;PMS_P1;PMS_P2;Temp;Humidity;BMP_temperature;BMP_pressure;BME280_temperature;BME280_humidity;BME280_pressure;Samples;Min_cycle;Max_cycle;Signal;HPM_P1;HPM_P2
2021/06/15 00:01:52;;;;;;;10.65;4.78;;;15.20;99.90;;;;;;4992950;28;20060;-93
2021/06/15 00:04:19;;;;;;;9.88;4.82;;;15.20;99.90;;;;;;4989189;28;20057;-91
2021/06/15 00:06:46;;;;;;;11.52;4.82;;;15.30;99.90;;;;;;5001096;28;20077;-93
2021/06/15 00:09:13;;;;;;;9.65;4.50;;;15.30;99.90;;;;;;4981931;28;20189;-93
2021/06/15 00:11:41;;;;;;;10.05;4.90;;;15.30;99.90;;;;;;4993687;28;20467;-92
2021/06/15 00:14:08;;;;;;;11.90;5.22;;;15.30;99.90;;;;;;4977262;28;20424;-93
2021/06/15 00:16:35;;;;;;;7.97;4.65;;;15.20;99.90;;;;;;4981289;28;20160;-92
2021/06/15 00:19:03;;;;;;;9.82;5.00;;;15.10;99.90;;;;;;4993758;28;20065;-92
2021/06/15 00:21:30;;;;;;;8.35;5.53;;;15.00;99.90;;;;;;4986338;28;20137;-92
2021/06/15 00:24:02;;;;;;;10.77;5.20;;;15.00;99.90;;;;;;4999536;28;20343;-92
2021/06/15 00:26:29;;;;;;;9.57;5.32;;;14.90;99.90;;;;;;4987497;28;20498;-92
2021/06/15 00:28:56;;;;;;;8.35;5.25;;;15.00;99.90;;;;;;4958921;28;20420;-91
2021/06/15 00:31:24;;;;;;;8.32;5.88;;;14.90;99.90;;;;;;4946449;28;20100;-91
2021/06/15 00:33:52;;;;;;;14.88;5.75;;;14.90;99.90;;;;;;4963493;28;20685;-92
2021/06/15 00:36:18;;;;;;;7.70;5.20;;;14.80;99.90;;;;;;4940212;28;20445;-91
2021/06/15 00:38:46;;;;;;;9.68;6.00;;;14.70;99.90;;;;;;4972616;28;20043;-94
2021/06/15 00:41:14;;;;;;;7.68;6.15;;;14.60;99.90;;;;;;4983355;28;20099;-94
2021/06/15 00:43:41;;;;;;;9.00;5.50;;;14.60;99.90;;;;;;4945908;28;20468;-92
2021/06/15 00:46:09;;;;;;;9.82;5.40;;;14.50;99.90;;;;;;4969727;28;20054;-91
2021/06/15 00:48:37;;;;;;;11.10;6.20;;;14.40;99.90;;;;;;4972574;28;20058;-89
2021/06/15 00:51:05;;;;;;;8.68;5.63;;;14.30;99.90;;;;;;4959951;28;20090;-92
2021/06/15 00:53:34;;;;;;;13.27;5.97;;;14.30;99.90;;;;;;4964726;28;20121;-92
2021/06/15 00:56:01;;;;;;;8.57;5.70;;;14.20;99.90;;;;;;4951673;28;20127;-91
2021/06/15 00:58:29;;;;;;;9.57;5.63;;;14.20;99.90;;;;;;4955181;28;20416;-92
2021/06/15 01:00:56;;;;;;;15.20;5.88;;;14.20;99.90;;;;;;4939771;28;20524;-94
2021/06/15 01:03:25;;;;;;;9.10;5.93;;;14.20;99.90;;;;;;4986184;28;20373;-93
2021/06/15 01:05:53;;;;;;;9.82;5.97;;;14.20;99.90;;;;;;4969445;28;20036;-92
2021/06/15 01:08:32;;;;;;;9.32;6.45;;;14.20;99.90;;;;;;4970131;28;20057;-91
2021/06/15 01:11:02;;;;;;;10.73;5.72;;;14.10;99.90;;;;;;4972136;28;20086;-92
2021/06/15 01:13:39;;;;;;;10.15;6.28;;;14.10;99.90;;;;;;4941126;28;20051;-92
2021/06/15 01:16:15;;;;;;;11.55;5.95;;;13.90;99.90;;;;;;4962978;28;20043;-92
2021/06/15 01:18:47;;;;;;;11.48;6.38;;;13.90;99.90;;;;;;4943601;28;20047;-92
2021/06/15 01:21:18;;;;;;;9.50;5.70;;;13.90;99.90;;;;;;4956414;28;20733;-92
2021/06/15 01:23:51;;;;;;;9.50;6.22;;;13.90;99.90;;;;;;4986644;28;20077;-92
2021/06/15 01:26:32;;;;;;;10.15;6.18;;;13.90;99.90;;;;;;4980543;28;20456;-94
2021/06/15 01:29:06;;;;;;;12.07;6.22;;;13.80;99.90;;;;;;4994216;28;20058;-91
2021/06/15 01:31:46;;;;;;;7.72;6.07;;;13.80;99.90;;;;;;5013411;28;20051;-93
2021/06/15 01:34:21;;;;;;;10.15;6.25;;;13.70;99.90;;;;;;4982235;28;20046;-92
2021/06/15 01:37:02;;;;;;;11.15;6.93;;;13.60;99.90;;;;;;4992210;28;20054;-92
2021/06/15 01:39:36;;;;;;;11.55;6.57;;;13.40;99.90;;;;;;5005763;28;20396;-94
2021/06/15 01:42:19;;;;;;;10.93;7.07;;;13.40;99.90;;;;;;4992660;28;20042;-92
2021/06/15 01:44:54;;;;;;;12.57;7.47;;;13.40;99.90;;;;;;4964170;28;20052;-93
2021/06/15 01:47:23;;;;;;;9.63;6.50;;;13.30;99.90;;;;;;4988659;28;20065;-92
2021/06/15 01:49:53;;;;;;;11.27;7.03;;;13.30;99.90;;;;;;4980988;28;20045;-92
2021/06/15 01:52:26;;;;;;;10.73;7.07;;;13.30;99.90;;;;;;4981090;28;20046;-92
2021/06/15 01:54:56;;;;;;;20.00;7.30;;;13.20;99.90;;;;;;4978180;28;20098;-92
2021/06/15 01:57:24;;;;;;;12.45;6.15;;;13.20;99.90;;;;;;4966601;28;20054;-91
2021/06/15 01:59:55;;;;;;;8.85;6.55;;;13.10;99.90;;;;;;4991211;28;20062;-90
2021/06/15 02:02:22;;;;;;;13.10;7.18;;;13.10;99.90;;;;;;4991509;28;20432;-93
2021/06/15 02:04:51;;;;;;;9.95;6.90;;;13.10;99.90;;;;;;5002621;28;20074;-93
2021/06/15 02:07:27;;;;;;;9.27;6.45;;;13.10;99.90;;;;;;4988283;28;20105;-92
2021/06/15 02:10:06;;;;;;;10.77;6.72;;;13.20;99.90;;;;;;5004682;28;20062;-93
2021/06/15 02:12:39;;;;;;;10.57;6.22;;;13.30;99.90;;;;;;4998402;28;20064;-92
2021/06/15 02:15:13;;;;;;;8.63;6.40;;;13.40;99.90;;;;;;4996342;28;20058;-91
2021/06/15 02:17:45;;;;;;;10.98;6.93;;;13.50;99.90;;;;;;4999643;28;20129;-92
2021/06/15 02:20:14;;;;;;;10.23;6.82;;;13.50;99.90;;;;;;4994428;28;20690;-91
2021/06/15 02:22:47;;;;;;;8.15;6.68;;;13.50;99.90;;;;;;4994925;28;20345;-93
2021/06/15 02:25:25;;;;;;;12.02;6.68;;;13.50;99.90;;;;;;4981531;28;20118;-92
2021/06/15 02:27:53;;;;;;;13.00;6.22;;;13.40;99.90;;;;;;4960510;28;20097;-91
2021/06/15 02:30:24;;;;;;;12.77;6.63;;;13.30;99.90;;;;;;4995127;28;20409;-92
2021/06/15 02:32:55;;;;;;;17.48;7.22;;;13.20;99.90;;;;;;4984517;28;20153;-91
2021/06/15 02:35:24;;;;;;;11.27;7.03;;;13.10;99.90;;;;;;4988710;28;20050;-92
2021/06/15 02:38:01;;;;;;;11.40;7.32;;;13.00;99.90;;;;;;4981220;28;20054;-91
2021/06/15 02:40:31;;;;;;;16.52;6.78;;;13.00;99.90;;;;;;5007811;28;20050;-91
2021/06/15 02:42:59;;;;;;;8.57;6.78;;;13.00;99.90;;;;;;4969799;28;20133;-90
2021/06/15 02:45:30;;;;;;;7.90;6.72;;;13.00;99.90;;;;;;5002443;28;20081;-91
2021/06/15 02:48:01;;;;;;;10.43;6.40;;;13.00;99.90;;;;;;5007918;28;20082;-91
2021/06/15 02:50:30;;;;;;;10.57;6.83;;;12.90;99.90;;;;;;5003055;28;20064;-90
2021/06/15 02:53:01;;;;;;;10.63;6.45;;;12.90;99.90;;;;;;4982003;28;20425;-89
2021/06/15 02:55:37;;;;;;;9.88;7.07;;;12.80;99.90;;;;;;5004812;28;20057;-90
2021/06/15 02:58:07;;;;;;;10.30;7.18;;;12.80;99.90;;;;;;4997439;28;20146;-92
2021/06/15 03:00:35;;;;;;;12.95;7.13;;;12.80;99.90;;;;;;5004636;28;20085;-91
2021/06/15 03:03:05;;;;;;;10.35;6.80;;;12.80;99.90;;;;;;4999654;28;20042;-91
2021/06/15 03:05:33;;;;;;;14.10;6.55;;;12.80;99.90;;;;;;5005397;28;20043;-91
2021/06/15 03:08:01;;;;;;;12.13;7.13;;;12.80;99.90;;;;;;4981989;28;20432;-91
2021/06/15 03:10:32;;;;;;;12.48;7.20;;;12.70;99.90;;;;;;4968696;28;20063;-89
2021/06/15 03:13:11;;;;;;;12.18;6.55;;;12.70;99.90;;;;;;4990056;28;20109;-92
2021/06/15 03:15:43;;;;;;;11.32;7.25;;;12.60;99.90;;;;;;5013298;28;20053;-92
2021/06/15 03:18:31;;;;;;;14.95;7.55;;;12.60;99.90;;;;;;4982692;28;20336;-90
2021/06/15 03:21:03;;;;;;;11.23;7.22;;;12.80;99.90;;;;;;4974138;28;20090;-91
2021/06/15 03:23:46;;;;;;;11.27;7.40;;;12.80;99.90;;;;;;4974529;28;20082;-91
2021/06/15 03:26:20;;;;;;;10.88;7.28;;;12.80;99.90;;;;;;4982474;28;20043;-93
2021/06/15 03:28:53;;;;;;;14.88;7.25;;;12.70;99.90;;;;;;4991308;28;20150;-93
2021/06/15 03:31:24;;;;;;;13.55;7.20;;;12.70;99.90;;;;;;4954991;28;20365;-91
2021/06/15 03:33:55;;;;;;;11.00;6.95;;;12.70;99.90;;;;;;4970454;28;20076;-93
2021/06/15 03:36:24;;;;;;;15.90;8.07;;;12.60;99.90;;;;;;4969765;28;20095;-91
2021/06/15 03:38:55;;;;;;;20.00;8.48;;;12.50;99.90;;;;;;4965269;28;20191;-92
2021/06/15 03:41:24;;;;;;;12.77;8.15;;;12.40;99.90;;;;;;4955109;28;20051;-92
2021/06/15 03:43:55;;;;;;;14.35;8.20;;;12.40;99.90;;;;;;4950682;28;20333;-92
2021/06/15 03:46:24;;;;;;;12.77;7.45;;;12.40;99.90;;;;;;4963244;28;20105;-93
2021/06/15 03:48:54;;;;;;;9.82;8.05;;;12.40;99.90;;;;;;4979069;28;20070;-92
2021/06/15 03:51:29;;;;;;;12.57;6.90;;;12.60;99.90;;;;;;4937582;29;20472;-94
2021/06/15 03:54:08;;;;;;;10.70;7.60;;;12.60;99.90;;;;;;4966592;28;20130;-92
2021/06/15 03:56:41;;;;;;;13.63;7.25;;;12.60;99.90;;;;;;4966821;28;20133;-92
2021/06/15 03:59:13;;;;;;;11.15;7.50;;;12.70;99.90;;;;;;4980369;28;20122;-93
2021/06/15 04:01:42;;;;;;;9.75;7.43;;;12.60;99.90;;;;;;4979686;28;20373;-93
2021/06/15 04:04:14;;;;;;;12.10;7.28;;;12.60;99.90;;;;;;4968689;28;20058;-92
2021/06/15 04:06:51;;;;;;;13.82;9.13;;;12.70;99.90;;;;;;4968603;28;20409;-92
2021/06/15 04:09:27;;;;;;;14.32;9.05;;;12.80;99.90;;;;;;4973861;28;20114;-93
2021/06/15 04:11:56;;;;;;;16.83;9.40;;;12.90;99.90;;;;;;4943473;28;20038;-91
2021/06/15 04:14:25;;;;;;;11.82;8.05;;;13.00;99.90;;;;;;4986048;28;20416;-93
2021/06/15 04:16:54;;;;;;;12.43;7.68;;;13.20;99.90;;;;;;4986875;28;20039;-94
2021/06/15 04:19:44;;;;;;;13.43;7.57;;;13.40;99.90;;;;;;4961738;28;20106;-91
2021/06/15 04:22:13;;;;;;;13.13;7.88;;;13.50;99.90;;;;;;4969593;28;20054;-91
2021/06/15 04:24:45;;;;;;;11.63;7.00;;;13.60;99.90;;;;;;4964939;28;20536;-91
2021/06/15 04:27:13;;;;;;;10.63;6.72;;;13.60;99.90;;;;;;4952525;28;20042;-92
2021/06/15 04:29:40;;;;;;;8.63;7.05;;;13.70;99.90;;;;;;4992681;28;20125;-92
2021/06/15 04:32:09;;;;;;;12.05;7.32;;;13.80;99.90;;;;;;5007554;28;20049;-91
2021/06/15 04:34:42;;;;;;;12.15;6.80;;;13.90;99.90;;;;;;4993038;28;20129;-91
2021/06/15 04:37:11;;;;;;;11.07;6.72;;;14.00;99.90;;;;;;4994015;28;20066;-92
2021/06/15 04:39:45;;;;;;;10.77;6.82;;;14.10;99.90;;;;;;4996117;28;20325;-90
2021/06/15 04:42:16;;;;;;;10.13;6.32;;;14.20;99.90;;;;;;4973324;28;20051;-90
2021/06/15 04:44:47;;;;;;;10.77;6.45;;;14.20;99.90;;;;;;4978932;28;20176;-92
2021/06/15 04:47:18;;;;;;;8.77;6.20;;;14.40;99.90;;;;;;4993671;28;20046;-91
2021/06/15 04:49:53;;;;;;;9.93;6.13;;;14.30;99.90;;;;;;4979094;28;20042;-93
2021/06/15 04:52:25;;;;;;;18.05;7.00;;;14.30;99.90;;;;;;4980216;28;20126;-92
2021/06/15 04:54:54;;;;;;;12.30;7.82;;;14.30;99.90;;;;;;4962429;28;20345;-91
2021/06/15 04:57:27;;;;;;;15.25;7.93;;;14.30;99.90;;;;;;4989730;28;20092;-90
2021/06/15 04:59:57;;;;;;;10.55;7.60;;;14.40;99.90;;;;;;4999708;28;20656;-91
2021/06/15 05:02:26;;;;;;;7.90;6.53;;;14.50;99.90;;;;;;5017598;28;20065;-91
2021/06/15 05:04:55;;;;;;;10.95;6.85;;;14.60;99.90;;;;;;4963270;28;20380;-93
2021/06/15 05:07:24;;;;;;;13.23;7.18;;;14.60;99.90;;;;;;4976822;28;20043;-91
2021/06/15 05:10:04;;;;;;;10.40;6.68;;;14.70;99.90;;;;;;4980537;28;21033;-91
2021/06/15 05:12:38;;;;;;;9.20;6.25;;;14.80;99.90;;;;;;4993857;28;20073;-91
2021/06/15 05:15:10;;;;;;;12.68;6.18;;;15.00;99.90;;;;;;4997822;28;20054;-90
2021/06/15 05:17:45;;;;;;;10.18;5.35;;;15.20;99.90;;;;;;4975738;28;20546;-92
2021/06/15 05:20:13;;;;;;;9.98;5.50;;;15.40;99.90;;;;;;4993233;28;20056;-91
2021/06/15 05:22:45;;;;;;;8.50;5.30;;;15.60;99.90;;;;;;4992894;28;20061;-91
2021/06/15 05:25:18;;;;;;;9.30;4.90;;;15.90;99.90;;;;;;4975785;28;20053;-91
2021/06/15 05:27:47;;;;;;;11.30;5.38;;;16.10;99.90;;;;;;4972584;28;20078;-91
2021/06/15 05:30:15;;;;;;;9.93;5.28;;;16.20;99.90;;;;;;4959297;28;20764;-90
2021/06/15 05:32:42;;;;;;;7.25;4.97;;;16.40;99.90;;;;;;4954348;28;20042;-91
2021/06/15 05:35:10;;;;;;;8.90;5.53;;;16.60;99.90;;;;;;4944979;28;20055;-91
2021/06/15 05:37:37;;;;;;;7.95;5.70;;;16.80;99.90;;;;;;4974886;28;20062;-93
2021/06/15 05:40:05;;;;;;;12.50;5.43;;;16.90;99.90;;;;;;4954408;28;20061;-96
2021/06/15 05:42:35;;;;;;;9.60;4.97;;;17.00;99.90;;;;;;4942686;28;20385;-91
2021/06/15 05:45:02;;;;;;;8.82;4.80;;;17.10;99.90;;;;;;4984749;28;20050;-91
2021/06/15 05:47:32;;;;;;;7.85;5.05;;;17.20;99.90;;;;;;4995692;28;20046;-92
2021/06/15 05:50:09;;;;;;;8.60;4.60;;;17.40;99.90;;;;;;4967992;28;20138;-93
2021/06/15 05:52:48;;;;;;;9.60;4.63;;;17.60;99.90;;;;;;4982151;28;20047;-92
2021/06/15 05:55:15;;;;;;;10.95;4.93;;;17.80;99.90;;;;;;4979709;28;20043;-93
2021/06/15 05:57:46;;;;;;;5.88;3.80;;;18.00;99.90;;;;;;4978757;28;20046;-93
2021/06/15 06:00:14;;;;;;;7.78;4.13;;;18.30;99.90;;;;;;4959873;28;20649;-91
2021/06/15 06:02:41;;;;;;;6.82;4.75;;;18.50;99.90;;;;;;4946330;28;20055;-92
2021/06/15 06:10:31;;;;;;;9.85;3.83;;;19.30;99.90;;;;;;4968160;28;20099;-90
2021/06/15 06:13:02;;;;;;;6.53;3.63;;;19.50;99.90;;;;;;4976729;28;20110;-91
2021/06/15 06:15:39;;;;;;;7.63;3.88;;;19.80;99.90;;;;;;4979401;28;20054;-93
2021/06/15 06:18:11;;;;;;;5.32;3.85;;;19.90;99.90;;;;;;4970741;28;20087;-91
2021/06/15 06:20:51;;;;;;;9.88;3.47;;;20.20;99.90;;;;;;4953698;28;20076;-92
2021/06/15 06:23:20;;;;;;;8.02;3.30;;;20.40;99.90;;;;;;4977264;28;20049;-90
2021/06/15 06:25:54;;;;;;;7.97;3.50;;;20.60;99.90;;;;;;5008525;28;20055;-92
2021/06/15 06:28:29;;;;;;;6.65;3.30;;;20.90;99.90;;;;;;5001532;28;20046;-90
2021/06/15 06:31:25;;;;;;;6.97;3.33;;;21.30;98.30;;;;;;5000031;28;20091;-95
2021/06/15 06:34:22;;;;;;;8.80;3.50;;;21.50;95.20;;;;;;4901782;29;20124;-92
2021/06/15 06:36:52;;;;;;;6.20;2.97;;;22.00;95.30;;;;;;4886621;29;20092;-92
2021/06/15 06:39:31;;;;;;;;;;;;;;;;;;;;;
2021/06/15 06:42:03;;;;;;;10.43;3.00;;;22.30;92.70;;;;;;4903236;29;20061;-92
2021/06/15 06:44:40;;;;;;;6.43;3.10;;;22.40;92.30;;;;;;4885441;29;20049;-91
2021/06/15 06:47:15;;;;;;;3.70;2.63;;;22.50;92.50;;;;;;4896446;29;20076;-92
2021/06/15 06:49:43;;;;;;;7.80;3.28;;;22.70;92.40;;;;;;4905050;29;20062;-94
2021/06/15 06:52:28;;;;;;;3.83;2.67;;;22.90;91.70;;;;;;4940243;28;20110;-92
2021/06/15 06:54:55;;;;;;;8.65;3.05;;;23.20;91.20;;;;;;4965078;28;20065;-92
2021/06/15 06:57:35;;;;;;;;;;;;;;;;;;;;;
2021/06/15 07:00:07;;;;;;;7.20;2.78;;;23.40;88.30;;;;;;5006869;28;20053;-94
2021/06/15 07:02:37;;;;;;;5.00;2.63;;;23.70;85.30;;;;;;5006365;28;20048;-94
2021/06/15 07:05:15;;;;;;;6.47;2.60;;;23.80;82.60;;;;;;4988399;28;20046;-91
2021/06/15 07:07:48;;;;;;;9.38;2.90;;;24.30;86.80;;;;;;4993633;28;20119;-93
2021/06/15 07:10:15;;;;;;;5.38;2.75;;;24.70;82.00;;;;;;4966832;28;20105;-92
2021/06/15 07:16:43;;;;;;;6.82;3.03;;;24.70;75.80;;;;;;4965273;28;20106;-93
2021/06/15 07:19:17;;;;;;;3.55;2.35;;;25.20;84.10;;;;;;4970886;28;20058;-92
2021/06/15 07:22:07;;;;;;;;;;;;;;;;;;;;;
2021/06/15 07:35:55;;;;;;;;;;;27.60;65.00;;;;;;5009130;23;20055;-93
2021/06/15 07:38:31;;;;;;;6.57;2.38;;;27.70;68.80;;;;;;4945318;28;19962;-92
2021/06/15 07:41:58;;;;;;;4.18;2.30;;;28.10;63.20;;;;;;4983376;28;20062;-93
2021/06/15 07:44:44;;;;;;;8.25;2.55;;;28.40;63.70;;;;;;4980813;28;20174;-94
2021/06/15 07:54:25;;;;;;;;;;;;;;;;;;;;;
2021/06/15 07:58:05;;;;;;;4.97;2.83;;;28.00;60.60;;;;;;5185062;23;20113;-93
2021/06/15 08:10:35;;;;;;;;;;;28.30;59.00;;;;;;5037043;23;20113;-93
2021/06/15 08:24:33;;;;;;;;;;;;;;;;;;;;;
2021/06/15 08:53:15;;;;;;;5.80;2.40;;;31.40;49.50;;;;;;4883027;29;20068;-93
2021/06/15 09:06:29;;;;;;;4.22;2.17;;;32.40;50.40;;;;;;4983441;28;20047;-92
2021/06/15 09:09:10;;;;;;;4.05;2.20;;;33.00;48.30;;;;;;4974302;28;20471;-92
2021/06/15 09:12:19;;;;;;;4.35;1.67;;;33.60;42.10;;;;;;4978987;28;20046;-92
2021/06/15 09:14:53;;;;;;;5.90;2.30;;;34.10;46.30;;;;;;4917516;28;20058;-93
2021/06/15 09:17:47;;;;;;;4.53;2.53;;;33.90;41.70;;;;;;4995261;28;20062;-93
2021/06/15 09:20:37;;;;;;;;;;;;;;;;;;;;;
2021/06/15 09:27:33;;;;;;;4.15;1.80;;;34.70;41.70;;;;;;5155221;22;20054;-92
2021/06/15 09:30:37;;;;;;;6.63;2.22;;;33.70;42.50;;;;;;5185533;23;20875;-91
2021/06/15 09:33:47;;;;;;;7.80;2.67;;;33.40;45.50;;;;;;4913382;29;20078;-92
2021/06/15 09:36:18;;;;;;;4.63;2.33;;;32.90;45.70;;;;;;4918929;29;20628;-91
2021/06/15 09:42:19;;;;;;;6.85;2.88;;;33.90;43.10;;;;;;4982421;28;20050;-93
2021/06/15 09:45:42;;;;;;;7.25;2.40;;;33.60;43.40;;;;;;4906437;29;20060;-93
2021/06/15 09:48:44;;;;;;;7.40;2.38;;;33.40;45.00;;;;;;4928490;29;20071;-92
2021/06/15 10:22:44;;;;;;;7.25;2.75;;;33.00;42.80;;;;;;4985481;28;20050;-92
2021/06/15 10:25:28;;;;;;;6.95;2.60;;;33.60;41.80;;;;;;5116308;23;20043;-90
2021/06/15 10:29:30;;;;;;;;;;;;;;;;;;;;;
2021/06/15 10:35:17;;;;;;;7.40;2.80;;;33.90;41.50;;;;;;5378299;23;20161;-94
2021/06/15 10:41:09;;;;;;;4.50;2.53;;;33.80;42.10;;;;;;5038043;23;20047;-92
2021/06/15 10:44:15;;;;;;;9.25;2.50;;;34.60;40.70;;;;;;4927803;29;20056;-91
2021/06/15 10:51:23;;;;;;;5.75;2.45;;;34.70;40.00;;;;;;4850256;29;20073;-91
2021/06/15 11:01:29;;;;;;;5.90;2.50;;;35.40;38.00;;;;;;4855520;29;20109;-95
2021/06/15 11:06:58;;;;;;;4.38;2.65;;;35.10;38.10;;;;;;4451583;23;20079;-93
2021/06/15 11:09:55;;;;;;;4.68;2.40;;;34.60;37.70;;;;;;4935840;29;20055;-95
2021/06/15 11:12:44;;;;;;;6.78;3.03;;;34.70;39.90;;;;;;5005566;23;20142;-91
2021/06/15 11:15:25;;;;;;;4.78;2.15;;;35.40;39.20;;;;;;4991073;28;20043;-90
2021/06/15 11:18:19;;;;;;;5.50;2.40;;;35.20;36.70;;;;;;4899675;29;20052;-92
2021/06/15 11:25:03;;;;;;;9.60;2.38;;;34.20;38.00;;;;;;5517935;23;20283;-91
2021/06/15 11:28:06;;;;;;;6.65;2.00;;;35.10;38.50;;;;;;5004920;28;20102;-93
2021/06/15 11:37:32;;;;;;;;;;;;;;;;;;;;;
2021/06/15 11:40:31;;;;;;;3.72;1.83;;;36.20;34.30;;;;;;4920227;29;20039;-93
2021/06/15 11:43:54;;;;;;;4.38;2.08;;;36.60;34.60;;;;;;4931759;28;20082;-92
2021/06/15 11:50:54;;;;;;;7.28;2.30;;;36.80;34.20;;;;;;5032898;23;20051;-92
2021/06/15 11:53:39;;;;;;;8.60;2.53;;;37.10;32.20;;;;;;4931280;29;20152;-93
2021/06/15 11:56:32;;;;;;;4.75;1.85;;;37.50;32.20;;;;;;4944960;29;20078;-92
2021/06/15 11:59:30;;;;;;;2.47;1.80;;;37.40;35.70;;;;;;4944160;29;20129;-94
2021/06/15 12:02:11;;;;;;;3.33;2.00;;;36.30;32.00;;;;;;4926894;28;20074;-92
2021/06/15 12:11:39;;;;;;;5.53;2.17;;;35.90;34.50;;;;;;4874337;29;20060;-92
2021/06/15 12:14:58;;;;;;;4.28;1.92;;;35.90;35.00;;;;;;4853245;29;20093;-93
2021/06/15 12:17:28;;;;;;;6.05;2.00;;;35.20;34.40;;;;;;4850763;29;20041;-93
2021/06/15 12:20:24;;;;;;;3.25;2.00;;;35.50;34.70;;;;;;4849554;29;20069;-91
2021/06/15 12:24:07;;;;;;;7.13;1.90;;;35.80;37.70;;;;;;4895604;29;20118;-90
2021/06/15 12:31:11;;;;;;;5.07;1.80;;;37.40;33.30;;;;;;4848380;29;21082;-91
2021/06/15 12:34:33;;;;;;;5.20;2.15;;;37.30;33.30;;;;;;4840795;29;20057;-93
2021/06/15 12:37:03;;;;;;;4.13;2.00;;;37.70;30.80;;;;;;4792856;29;20063;-93
2021/06/15 12:40:16;;;;;;;;;;;;;;;;;;;;;
2021/06/15 12:43:10;;;;;;;3.90;1.77;;;38.20;29.60;;;;;;4825639;29;20049;-93
2021/06/15 12:46:25;;;;;;;5.38;1.60;;;38.60;30.60;;;;;;4880273;29;20475;-91
2021/06/15 12:49:43;;;;;;;4.13;1.73;;;37.50;31.90;;;;;;4909351;29;20108;-91
2021/06/15 12:52:15;;;;;;;7.72;1.92;;;37.00;33.20;;;;;;4856386;29;20110;-93
2021/06/15 12:54:45;;;;;;;4.03;1.80;;;37.20;33.90;;;;;;4929582;29;20079;-92
2021/06/15 12:57:20;;;;;;;5.20;1.65;;;37.50;33.30;;;;;;4935082;29;20111;-90
2021/06/15 13:00:10;;;;;;;5.38;1.70;;;38.40;35.40;;;;;;4935180;29;20058;-92
2021/06/15 13:05:31;;;;;;;4.55;2.00;;;38.90;31.00;;;;;;4933349;29;20159;-92
2021/06/15 13:08:39;;;;;;;6.18;1.75;;;38.20;30.10;;;;;;4945356;29;20047;-91
2021/06/15 13:11:24;;;;;;;3.58;1.95;;;38.10;30.40;;;;;;4941635;29;20051;-91
2021/06/15 13:14:12;;;;;;;;;;;;;;;;;;;;;
2021/06/15 13:16:44;;;;;;;3.38;1.90;;;39.30;28.20;;;;;;4940051;29;20063;-92
2021/06/15 13:19:18;;;;;;;2.83;1.40;;;39.80;30.40;;;;;;4918912;29;20331;-91
2021/06/15 13:21:55;;;;;;;5.32;1.73;;;39.30;30.00;;;;;;4938652;29;20047;-92
2021/06/15 13:24:40;;;;;;;5.05;1.85;;;39.20;28.80;;;;;;4900007;29;20076;-93
2021/06/15 13:27:25;;;;;;;3.55;1.90;;;39.20;29.70;;;;;;4934440;29;20052;-94
2021/06/15 13:35:01;;;;;;;;;;;;;;;;;;;;;
2021/06/15 13:37:51;;;;;;;2.83;1.38;;;39.50;29.10;;;;;;4835191;29;20056;-92
2021/06/15 13:48:25;;;;;;;2.47;1.30;;;39.60;29.10;;;;;;4823705;29;20445;-91
2021/06/15 13:50:53;;;;;;;4.07;1.80;;;39.20;28.20;;;;;;4944477;23;20117;-90
2021/06/15 13:53:23;;;;;;;2.97;1.58;;;38.90;27.80;;;;;;4992919;28;20161;-91
2021/06/15 14:00:09;;;;;;;3.20;1.55;;;38.40;29.10;;;;;;4997245;28;20062;-93
2021/06/15 14:02:45;;;;;;;2.17;1.45;;;38.30;29.00;;;;;;5279077;23;20045;-95
2021/06/15 14:06:25;;;;;;;4.13;1.23;;;38.20;28.50;;;;;;5189872;23;20105;-93
2021/06/15 14:09:04;;;;;;;2.05;1.38;;;38.50;29.40;;;;;;4963834;28;20087;-92
2021/06/15 14:11:52;;;;;;;4.03;1.60;;;38.60;28.80;;;;;;4979556;28;20474;-93
2021/06/15 14:14:22;;;;;;;4.45;1.40;;;38.60;28.30;;;;;;5000674;28;20073;-93
2021/06/15 14:17:09;;;;;;;2.25;1.33;;;39.30;27.60;;;;;;4983340;28;20038;-93
2021/06/15 14:20:07;;;;;;;;;;;;;;;;;;;;;
2021/06/15 14:22:55;;;;;;;4.10;1.65;;;38.50;29.90;;;;;;4983566;28;20057;-93
2021/06/15 14:25:43;;;;;;;2.88;1.50;;;38.60;27.20;;;;;;4997020;28;20042;-92
2021/06/15 14:28:28;;;;;;;4.15;1.42;;;38.20;28.30;;;;;;4946856;29;20067;-93
2021/06/15 14:31:01;;;;;;;2.97;1.20;;;38.00;29.00;;;;;;4966908;29;20039;-93
2021/06/15 14:33:41;;;;;;;3.85;1.52;;;37.80;28.30;;;;;;4885605;29;20067;-92
2021/06/15 14:36:21;;;;;;;;;;;;;;;;;;;;;
2021/06/15 14:39:37;;;;;;;4.72;1.40;;;38.00;28.40;;;;;;4921710;29;20112;-92
2021/06/15 14:43:01;;;;;;;4.55;1.67;;;37.80;28.50;;;;;;4876337;29;20074;-90
2021/06/15 14:45:30;;;;;;;3.60;1.77;;;38.20;28.30;;;;;;4883633;29;20080;-93
2021/06/15 14:48:11;;;;;;;2.88;1.50;;;38.30;26.60;;;;;;4895622;29;20178;-93
2021/06/15 14:50:46;;;;;;;3.45;1.20;;;38.60;26.90;;;;;;4901747;29;20398;-93
2021/06/15 14:53:34;;;;;;;2.42;1.30;;;38.20;27.40;;;;;;4900751;29;20214;-92
2021/06/15 14:56:05;;;;;;;2.78;1.75;;;38.10;27.70;;;;;;4902932;29;20048;-92
2021/06/15 14:59:19;;;;;;;1.65;1.33;;;37.90;28.60;;;;;;4900902;29;20309;-92
2021/06/15 15:01:51;;;;;;;1.98;1.30;;;38.10;28.10;;;;;;4891658;29;20195;-94
2021/06/15 15:04:32;;;;;;;4.53;1.58;;;38.20;26.70;;;;;;4927178;28;20536;-92
2021/06/15 15:07:00;;;;;;;2.55;1.83;;;37.70;28.90;;;;;;4994558;28;20170;-91
2021/06/15 15:09:30;;;;;;;3.15;1.13;;;37.50;32.40;;;;;;4994996;28;20242;-93
2021/06/15 15:11:57;;;;;;;3.17;1.30;;;37.30;28.30;;;;;;4967809;28;20105;-94
2021/06/15 15:14:27;;;;;;;4.18;1.33;;;37.20;29.40;;;;;;4987728;28;20053;-92
2021/06/15 15:16:56;;;;;;;3.90;1.10;;;37.50;29.00;;;;;;5000001;28;20038;-93
2021/06/15 15:19:44;;;;;;;1.25;1.08;;;37.40;28.30;;;;;;4974628;28;20059;-93
2021/06/15 15:22:34;;;;;;;4.97;1.50;;;36.80;29.60;;;;;;4980053;28;20061;-93
2021/06/15 15:25:24;;;;;;;3.83;1.48;;;36.50;30.10;;;;;;4929204;29;20060;-91
2021/06/15 15:28:14;;;;;;;6.05;1.40;;;36.30;30.70;;;;;;4920947;29;20152;-92
2021/06/15 15:31:20;;;;;;;6.82;1.50;;;36.30;29.20;;;;;;4950113;29;20060;-93
2021/06/15 15:33:50;;;;;;;4.30;1.33;;;36.10;29.70;;;;;;4924267;29;20055;-92
2021/06/15 15:36:18;;;;;;;3.38;1.35;;;35.50;29.80;;;;;;4937645;29;20139;-92
2021/06/15 15:38:47;;;;;;;2.22;1.15;;;35.80;29.40;;;;;;4937749;29;20075;-91
2021/06/15 15:41:17;;;;;;;2.35;1.23;;;35.40;30.70;;;;;;4938046;29;20047;-93
2021/06/15 15:43:50;;;;;;;3.63;1.30;;;35.80;31.60;;;;;;4921060;29;20119;-93
2021/06/15 15:46:20;;;;;;;3.15;1.20;;;35.80;29.00;;;;;;4919658;29;20806;-92
2021/06/15 15:48:57;;;;;;;1.92;1.10;;;35.80;30.80;;;;;;4938229;29;20051;-92
2021/06/15 15:51:44;;;;;;;2.88;1.27;;;35.90;29.30;;;;;;4900926;29;20093;-93
2021/06/15 15:54:35;;;;;;;2.17;1.20;;;35.30;30.00;;;;;;4949569;28;20071;-91
2021/06/15 15:57:21;;;;;;;;;;;;;;;;;;;;;
2021/06/15 16:00:17;;;;;;;5.75;1.40;;;34.90;30.90;;;;;;4996082;28;20340;-92
2021/06/15 16:02:46;;;;;;;7.25;1.90;;;34.60;31.10;;;;;;4994598;28;20046;-92
2021/06/15 16:05:15;;;;;;;2.33;1.40;;;34.40;31.90;;;;;;4981488;28;20046;-93
2021/06/15 16:07:47;;;;;;;4.43;1.25;;;34.20;34.40;;;;;;4993823;28;20049;-92
2021/06/15 16:10:30;;;;;;;3.28;1.30;;;33.70;33.40;;;;;;4982194;28;20065;-92
2021/06/15 16:12:58;;;;;;;2.80;1.30;;;33.50;33.20;;;;;;4994044;28;20058;-91
2021/06/15 16:15:26;;;;;;;2.78;1.58;;;33.40;35.00;;;;;;4977161;28;20054;-93
2021/06/15 16:18:08;;;;;;;3.10;1.50;;;32.80;32.40;;;;;;4977904;28;20050;-91
2021/06/15 16:20:50;;;;;;;;;;;;;;;;;;;;;
2021/06/15 16:23:43;;;;;;;4.53;1.23;;;32.50;34.20;;;;;;4981902;28;20059;-93
2021/06/15 16:26:20;;;;;;;4.22;1.17;;;32.00;34.90;;;;;;5001925;28;20062;-93
2021/06/15 16:28:50;;;;;;;7.53;1.38;;;31.60;34.30;;;;;;4995685;28;20058;-93
2021/06/15 16:31:18;;;;;;;2.05;1.20;;;31.30;35.90;;;;;;4992117;28;20050;-93
2021/06/15 16:33:48;;;;;;;5.38;1.55;;;31.20;37.10;;;;;;4997045;28;20042;-93
2021/06/15 16:39:26;;;;;;;;;;;;;;;;;;;;;
2021/06/15 16:42:05;;;;;;;2.55;1.20;;;30.50;36.60;;;;;;4993986;28;20049;-92
2021/06/15 16:44:36;;;;;;;5.25;1.20;;;30.20;36.30;;;;;;4990402;28;20054;-94
2021/06/15 16:47:49;;;;;;;2.38;1.10;;;29.80;36.30;;;;;;4993291;28;20069;-92
2021/06/15 16:50:47;;;;;;;4.57;1.70;;;29.50;36.80;;;;;;4905851;29;20059;-92
2021/06/15 16:53:19;;;;;;;4.82;1.15;;;29.00;38.30;;;;;;4974268;28;20066;-93
2021/06/15 16:55:50;;;;;;;4.88;1.10;;;28.60;38.00;;;;;;4983120;28;20109;-93
2021/06/15 16:58:31;;;;;;;3.55;1.50;;;28.40;39.10;;;;;;4994125;28;20061;-91
2021/06/15 17:01:17;;;;;;;1.83;1.45;;;28.10;40.00;;;;;;4995070;28;20117;-93
2021/06/15 17:03:59;;;;;;;1.83;1.05;;;28.00;39.30;;;;;;4972269;28;20096;-93
2021/06/15 17:07:00;;;;;;;4.50;1.40;;;27.90;39.90;;;;;;4979994;28;20364;-93
2021/06/15 17:09:28;;;;;;;2.08;1.15;;;27.80;39.40;;;;;;4955744;28;20055;-93
2021/06/15 17:11:55;;;;;;;4.47;2.30;;;27.70;40.30;;;;;;4937739;29;20047;-93
2021/06/15 17:14:34;;;;;;;12.85;10.02;;;27.60;40.70;;;;;;4942964;29;20075;-93
2021/06/15 17:17:04;;;;;;;7.18;2.38;;;27.50;41.50;;;;;;4942557;29;20051;-92